02:11
Airports
Links
Donate
Help keep this website running!
PayPal
Bitcoin
METAR
KJFK 110151Z 25018KT 10SM FEW050 BKN150 02/M04 A3003 RMK AO2 SLP167 T00221039
Current Weather Conditions at KJFK
VFR 01:51:00 11-12-17
Automated station
Altimeter:30.03 hg
Temp:2.2°c 36°f
Dew point:-3.9°c 27°f
Wind:18 knots, 20.7 mph, 9 m/s, from 250°
Visibility:10.0 statute miles
15000(BKN) Broken
5000(FEW) A few
Past METAR reports
VFR 00:51:00 11-12-17
Automated station
Altimeter:30.02 hg
Temp:2.8°c 36°f
Dew point:-3.9°c 27°f
Wind:18 knots, 20.7 mph, 9 m/s, from 250°
Visibility:10.0 statute miles
15000(BKN) Broken
5000(FEW) A few
KJFK 110051Z 25018KT 10SM FEW050 BKN150 03/M04 A3002 RMK AO2 SLP166 T00281039
VFR 23:51:00 10-12-17
Automated station
Altimeter:30.01 hg
Temp:2.2°c 36°f
Dew point:-5.0°c 23°f
Wind:13 knots, 15 mph, 7 m/s, from 260°
Visibility:10.0 statute miles
17000(BKN) Broken
5000(FEW) A few
KJFK 102351Z 26013KT 10SM FEW050 BKN170 02/M05 A3001 RMK AO2 SLP162 4/002 T00221050 10033 20022 51015
VFR 22:51:00 10-12-17
Automated station
Altimeter:30.01 hg
Temp:2.2°c 36°f
Dew point:-5.0°c 23°f
Wind:16 knots, 18.4 mph, 8 m/s, from 250°
Visibility:10.0 statute miles
5500(SCT) Scattered
KJFK 102251Z 25016KT 10SM SCT055 02/M05 A3001 RMK AO2 SLP160 T00221050
VFR 21:51:00 10-12-17
Automated station
Altimeter:29.98 hg
Temp:2.8°c 36°f
Dew point:-4.4°c 25°f
Wind:19 knots, 21.9 mph, 10 m/s, from 250°
Visibility:10.0 statute miles
5500(SCT) Scattered
4000(FEW) A few
KJFK 102151Z 25019KT 10SM FEW040 SCT055 03/M04 A2998 RMK AO2 SLP153 T00281044
VFR 20:51:00 10-12-17
Automated station
Altimeter:29.97 hg
Temp:3.3°c 37°f
Dew point:-4.4°c 25°f
Wind:19 knots, 21.9 mph, 10 m/s, from 250°
Visibility:10.0 statute miles
5000(BKN) Broken
KJFK 102051Z 25019G23KT 10SM BKN050 03/M04 A2997 RMK AO2 SLP147 T00331044 53012
TAF
KJFK 102328Z 1100/1206 25014G20KT P6SM BKN050 FM110600 25012G18KT P6SM -SHSN SCT030 OVC050 FM110900 26012G18KT P6SM -SHSN OVC030 FM111100 26012G18KT P6SM OVC030 FM111400 27013G19KT P6SM SCT030 FM111500 27013G19KT P6SM SCT030 FM111600 27012G18KT P6SM FEW030 FEW250 FM112100 27008KT P6SM FEW030 SCT250 FM120300 20004KT P6SM OVC250
Forecast at KJFK
00:00 11-12-17 to 06:00 11-12-17
Wind:14 Knots from 250°
Visibility:6.21 statute miles
5000BKN Broken
FM 06:00 11-12-17 to 09:00 11-12-17
-SHSN
Wind:12 Knots from 250°
Visibility:6.21 statute miles
3000SCT Scattered
5000OVC Overcast
FM 09:00 11-12-17 to 11:00 11-12-17
-SHSN
Wind:12 Knots from 260°
Visibility:6.21 statute miles
3000OVC Overcast
FM 11:00 11-12-17 to 14:00 11-12-17
Wind:12 Knots from 260°
Visibility:6.21 statute miles
3000OVC Overcast
FM 14:00 11-12-17 to 15:00 11-12-17
Wind:13 Knots from 270°
Visibility:6.21 statute miles
3000SCT Scattered
FM 15:00 11-12-17 to 16:00 11-12-17
Wind:13 Knots from 270°
Visibility:6.21 statute miles
3000SCT Scattered
FM 16:00 11-12-17 to 21:00 11-12-17
Wind:12 Knots from 270°
Visibility:6.21 statute miles
3000FEW A few
25000FEW A few
FM 21:00 11-12-17 to 03:00 12-12-17
Wind:8 Knots from 270°
Visibility:6.21 statute miles
3000FEW A few
25000SCT Scattered
FM 03:00 12-12-17 to 06:00 12-12-17
Wind:4 Knots from 200°
Visibility:6.21 statute miles
25000OVC Overcast